Terminal Aerodrome Forecast
Issued by NWS

Home | Current Version | Previous Version | Text Only | Print | Product List | Glossary Off
Versions: 1 2 3 4 5 6 7 8 9 10 11 12 13 14 15 16 17 18

000
FTUS43 KGRB 271734
TAFAUW
TAF
KAUW 271734Z 2718/2818 09007KT P6SM SCT015 OVC040
      TEMPO 2718/2722 6SM -SHRA BKN015
     FM272300 12003KT P6SM OVC035
     FM280400 VRB03KT 5SM BR BKN013
     FM281000 VRB03KT 2SM BR BKN007
      TEMPO 2810/2813 1/2SM FG VV001
     FM281500 29004KT 5SM BR BKN015=

USA.gov is the U.S. government's official web portal to all federal, state and local government web resources and services.